createdAt,value
2019-04-16T00:01:08.028Z,9.38
2019-04-16T00:03:40.312Z,8.88
2019-04-16T00:06:15.245Z,12.00
2019-04-16T00:08:46.089Z,20.15
2019-04-16T00:11:18.181Z,15.25
2019-04-16T00:13:49.106Z,12.25
2019-04-16T00:16:18.366Z,8.55
2019-04-16T00:18:57.093Z,9.50
2019-04-16T00:21:20.179Z,9.48
2019-04-16T00:24:07.268Z,13.65
2019-04-16T00:26:36.548Z,11.28
2019-04-16T00:29:05.815Z,10.23
2019-04-16T00:31:37.076Z,9.63
2019-04-16T00:34:06.210Z,12.30
2019-04-16T00:36:48.811Z,12.58
2019-04-16T00:39:18.749Z,11.93
2019-04-16T00:41:47.946Z,11.20
2019-04-16T00:44:17.262Z,12.07
2019-04-16T00:46:46.542Z,12.73
2019-04-16T00:49:15.740Z,11.38
2019-04-16T00:51:44.904Z,16.45
2019-04-16T00:54:15.245Z,12.60
2019-04-16T00:56:46.609Z,9.40
2019-04-16T00:59:15.369Z,16.20
2019-04-16T01:01:44.726Z,13.03
2019-04-16T01:04:13.991Z,21.62
2019-04-16T01:06:43.277Z,16.30
2019-04-16T01:09:12.521Z,9.83
2019-04-16T01:11:42.298Z,5.58
2019-04-16T01:14:11.563Z,9.75
2019-04-16T01:16:40.898Z,10.82
2019-04-16T01:19:11.171Z,16.82
2019-04-16T01:21:44.422Z,12.03
2019-04-16T01:24:11.393Z,9.73
2019-04-16T01:26:40.657Z,12.68
2019-04-16T01:29:11.530Z,14.43
2019-04-16T01:31:51.665Z,12.18
2019-04-16T01:34:31.429Z,18.87
2019-04-16T01:37:11.366Z,9.83
2019-04-16T01:39:42.249Z,11.18
2019-04-16T01:42:13.150Z,8.83
2019-04-16T01:44:43.477Z,7.53
2019-04-16T01:47:13.825Z,25.02
2019-04-16T01:49:43.016Z,11.05
2019-04-16T01:52:24.682Z,7.15
2019-04-16T01:54:54.872Z,7.50
2019-04-16T01:57:24.944Z,15.75
2019-04-16T01:59:54.199Z,9.50
2019-04-16T02:02:24.434Z,8.33
2019-04-16T02:04:53.722Z,13.83
2019-04-16T02:07:27.769Z,8.38
2019-04-16T02:09:53.937Z,10.18
2019-04-16T02:12:23.127Z,5.53
2019-04-16T02:14:52.841Z,11.50
2019-04-16T02:17:41.607Z,18.23
2019-04-16T02:20:10.809Z,10.40
2019-04-16T02:22:52.706Z,11.05
2019-04-16T02:25:21.986Z,12.93
2019-04-16T02:28:03.452Z,9.85
2019-04-16T02:30:37.567Z,10.68
2019-04-16T02:33:03.639Z,14.63
2019-04-16T02:35:33.066Z,11.48
2019-04-16T02:38:02.697Z,8.35
2019-04-16T02:40:32.099Z,9.65
2019-04-16T02:43:08.225Z,9.60
2019-04-16T02:45:37.571Z,6.15
2019-04-16T02:48:17.366Z,10.32
2019-04-16T02:50:54.236Z,9.65
2019-04-16T02:53:43.198Z,9.45
2019-04-16T02:56:32.288Z,7.42
2019-04-16T02:59:13.588Z,8.68
2019-04-16T03:02:22.808Z,9.60
2019-04-16T03:05:06.751Z,10.18
2019-04-16T03:07:36.090Z,5.70
2019-04-16T03:10:05.339Z,8.83
2019-04-16T03:12:34.622Z,10.23
2019-04-16T03:15:04.472Z,28.38
2019-04-16T03:17:42.745Z,11.93
2019-04-16T03:20:16.388Z,7.25
2019-04-16T03:22:45.661Z,10.85
2019-04-16T03:25:14.920Z,12.40
2019-04-16T03:27:44.166Z,8.63
2019-04-16T03:30:15.113Z,11.43
2019-04-16T03:32:48.801Z,10.08
2019-04-16T03:35:18.036Z,9.65
2019-04-16T03:37:47.419Z,9.18
2019-04-16T03:40:18.614Z,8.98
2019-04-16T03:42:49.196Z,10.45
2019-04-16T03:45:18.450Z,9.83
2019-04-16T03:47:51.026Z,8.63
2019-04-16T03:50:18.591Z,13.25
2019-04-16T03:52:47.843Z,12.70
2019-04-16T03:55:17.025Z,7.10
2019-04-16T03:57:46.285Z,8.43
2019-04-16T04:00:15.539Z,8.30
2019-04-16T04:02:44.789Z,7.42
2019-04-16T04:05:14.044Z,5.62
2019-04-16T04:07:44.153Z,8.85
2019-04-16T04:10:29.085Z,23.07
2019-04-16T04:12:46.596Z,11.80
2019-04-16T04:15:28.340Z,9.25
2019-04-16T04:17:57.945Z,8.10
2019-04-16T04:20:49.690Z,7.22
2019-04-16T04:23:17.528Z,6.00
2019-04-16T04:25:47.534Z,11.05
2019-04-16T04:28:19.708Z,8.20
2019-04-16T04:30:48.990Z,6.40
2019-04-16T04:33:40.970Z,10.53
2019-04-16T04:36:10.811Z,9.18
2019-04-16T04:38:40.056Z,7.20
2019-04-16T04:41:09.309Z,16.35
2019-04-16T04:43:38.585Z,10.25
2019-04-16T04:46:13.002Z,7.55
2019-04-16T04:48:38.726Z,8.53
2019-04-16T04:51:20.799Z,9.03
2019-04-16T04:53:51.239Z,10.15
2019-04-16T04:56:20.638Z,8.08
2019-04-16T04:58:49.903Z,7.95
2019-04-16T05:01:19.166Z,7.70
2019-04-16T05:04:02.036Z,11.75
2019-04-16T05:06:31.628Z,11.43
2019-04-16T05:09:01.470Z,11.95
2019-04-16T05:11:32.342Z,10.08
2019-04-16T05:14:14.372Z,8.48
2019-04-16T05:16:43.633Z,8.25
2019-04-16T05:19:25.427Z,11.08
2019-04-16T05:21:54.683Z,15.03
2019-04-16T05:24:28.917Z,11.60
2019-04-16T05:26:56.489Z,9.78
2019-04-16T05:29:25.900Z,19.77
2019-04-16T05:31:57.421Z,11.78
2019-04-16T05:34:26.043Z,7.05
2019-04-16T05:36:55.282Z,7.92
2019-04-16T05:39:28.384Z,8.28
2019-04-16T05:41:55.801Z,10.03
2019-04-16T05:44:25.042Z,11.05
2019-04-16T05:47:06.694Z,10.05
2019-04-16T05:49:35.967Z,7.03
2019-04-16T05:52:06.290Z,9.05
2019-04-16T05:54:37.204Z,9.93
2019-04-16T06:00:10.419Z,24.52
2019-04-16T06:02:41.502Z,11.22
2019-04-16T06:05:10.753Z,12.78
2019-04-16T06:07:40.015Z,12.70
2019-04-16T06:10:09.356Z,9.25
2019-04-16T06:12:43.246Z,6.15
2019-04-16T06:18:11.834Z,10.23
2019-04-16T06:20:49.371Z,7.50
2019-04-16T06:23:48.135Z,7.15
2019-04-16T06:26:20.521Z,12.10
2019-04-16T06:29:03.522Z,11.43
2019-04-16T06:31:39.200Z,9.60
2019-04-16T06:34:12.488Z,6.62
2019-04-16T06:36:46.341Z,7.50
2019-04-16T06:42:06.481Z,10.03
2019-04-16T06:44:37.315Z,8.63
2019-04-16T06:47:10.542Z,8.40
2019-04-16T06:50:07.284Z,7.92
2019-04-16T06:52:46.185Z,8.65
2019-04-16T06:55:16.440Z,9.65
2019-04-16T06:58:03.616Z,10.68
2019-04-16T07:00:46.887Z,8.93
2019-04-16T07:03:33.834Z,9.97
2019-04-16T07:06:04.858Z,12.33
2019-04-16T07:08:41.997Z,16.25
2019-04-16T07:11:13.972Z,8.00
2019-04-16T07:13:43.250Z,16.45
2019-04-16T07:16:12.502Z,20.57
2019-04-16T07:18:41.685Z,9.93
2019-04-16T07:21:14.554Z,13.28
2019-04-16T07:23:45.793Z,9.53
2019-04-16T07:26:15.176Z,9.00
2019-04-16T07:29:04.502Z,11.22
2019-04-16T07:31:56.227Z,10.78
2019-04-16T07:34:34.073Z,9.65
2019-04-16T07:37:11.092Z,9.33
2019-04-16T07:40:00.270Z,15.45
2019-04-16T07:43:46.955Z,12.05
2019-04-16T07:45:19.717Z,13.35
2019-04-16T07:50:35.518Z,10.82
2019-04-16T07:53:22.642Z,10.65
2019-04-16T07:55:59.310Z,14.87
2019-04-16T07:58:28.564Z,15.38
2019-04-16T08:01:00.054Z,17.15
2019-04-16T08:03:41.466Z,20.20
2019-04-16T08:06:14.294Z,22.80
2019-04-16T08:08:53.945Z,14.87
2019-04-16T08:11:23.251Z,16.15
2019-04-16T08:13:52.510Z,17.90
2019-04-16T08:16:21.711Z,12.03
2019-04-16T08:18:52.956Z,18.55
2019-04-16T08:21:22.647Z,16.07
2019-04-16T08:23:55.035Z,11.68
2019-04-16T08:26:41.562Z,20.45
2019-04-16T08:29:10.520Z,14.75
2019-04-16T08:31:44.512Z,18.73
2019-04-16T08:34:14.197Z,13.48
2019-04-16T08:36:43.553Z,23.18
2019-04-16T08:39:14.688Z,14.45
2019-04-16T08:41:45.499Z,15.85
2019-04-16T08:44:14.788Z,14.70
2019-04-16T08:46:44.031Z,18.37
2019-04-16T08:49:16.216Z,13.78
2019-04-16T08:51:49.947Z,15.48
2019-04-16T08:54:19.256Z,16.82
2019-04-16T08:56:48.488Z,11.63
2019-04-16T08:59:19.238Z,15.95
2019-04-16T09:01:51.407Z,15.90
2019-04-16T09:04:19.402Z,17.98
2019-04-16T09:06:48.684Z,17.25
2019-04-16T09:09:24.685Z,13.30
2019-04-16T09:11:55.106Z,12.25
2019-04-16T09:14:26.125Z,21.48
2019-04-16T09:17:13.606Z,11.80
2019-04-16T09:19:45.579Z,24.37
2019-04-16T09:22:16.881Z,18.12
2019-04-16T09:24:50.343Z,17.70
2019-04-16T09:30:04.827Z,14.33
2019-04-16T09:32:41.556Z,16.93
2019-04-16T09:35:18.443Z,22.77
2019-04-16T09:38:01.236Z,16.35
2019-04-16T09:40:49.276Z,17.90
2019-04-16T09:43:23.373Z,16.00
2019-04-16T09:48:23.955Z,21.45
2019-04-16T09:50:53.239Z,19.12
2019-04-16T09:53:32.860Z,25.23
2019-04-16T09:55:53.410Z,15.70
2019-04-16T09:58:24.634Z,19.17
2019-04-16T10:01:10.958Z,17.17
2019-04-16T10:03:41.871Z,24.07
2019-04-16T10:06:11.148Z,20.62
2019-04-16T10:08:44.494Z,15.35
2019-04-16T10:11:11.333Z,18.92
2019-04-16T10:13:40.612Z,19.25
2019-04-16T10:16:09.887Z,14.30
2019-04-16T10:18:39.140Z,15.45
2019-04-16T10:21:08.420Z,21.82
2019-04-16T10:23:42.263Z,18.57
2019-04-16T10:26:12.777Z,20.35
2019-04-16T10:28:43.980Z,21.80
2019-04-16T10:33:56.173Z,19.98
2019-04-16T10:36:25.586Z,18.23
2019-04-16T10:38:59.536Z,23.25
2019-04-16T10:44:17.688Z,15.93
2019-04-16T10:49:45.814Z,19.98
2019-04-16T10:52:22.530Z,25.57
2019-04-16T10:54:57.578Z,20.80
2019-04-16T11:00:14.489Z,29.23
2019-04-16T11:02:47.016Z,27.98
2019-04-16T11:05:19.052Z,23.90
2019-04-16T11:07:51.689Z,22.30
2019-04-16T11:10:20.970Z,23.07
2019-04-16T11:12:50.343Z,18.75
2019-04-16T11:15:21.263Z,21.40
2019-04-16T11:17:50.587Z,22.42
2019-04-16T11:20:19.864Z,23.80
2019-04-16T11:22:49.228Z,21.30
2019-04-16T11:25:21.210Z,21.85
2019-04-16T11:27:51.056Z,24.43
2019-04-16T11:30:21.962Z,19.77
2019-04-16T11:32:53.315Z,24.55
2019-04-16T11:35:23.476Z,20.37
2019-04-16T11:37:54.298Z,18.40
2019-04-16T11:40:23.619Z,19.90
2019-04-16T11:42:53.180Z,22.30
2019-04-16T11:45:25.579Z,18.65
2019-04-16T11:47:54.826Z,17.92
2019-04-16T11:50:24.603Z,24.25
2019-04-16T11:52:57.230Z,20.43
2019-04-16T11:55:27.989Z,21.37
2019-04-16T11:57:57.432Z,22.65
2019-04-16T12:00:37.021Z,24.30
2019-04-16T12:03:08.088Z,20.17
2019-04-16T12:06:01.314Z,27.27
2019-04-16T12:08:38.033Z,20.77
2019-04-16T12:11:09.620Z,32.42
2019-04-16T12:13:56.284Z,21.93
2019-04-16T12:16:44.271Z,19.02
2019-04-16T12:19:24.373Z,23.40
2019-04-16T12:22:02.646Z,22.50
2019-04-16T12:24:50.715Z,25.02
2019-04-16T12:27:37.666Z,21.17
2019-04-16T12:30:28.633Z,19.32
2019-04-16T12:32:59.613Z,19.90
2019-04-16T12:35:46.566Z,18.80
2019-04-16T12:38:24.221Z,20.50
2019-04-16T12:41:11.288Z,18.67
2019-04-16T12:43:54.421Z,20.02
2019-04-16T12:46:28.543Z,12.97
2019-04-16T12:49:02.382Z,13.78
2019-04-16T12:51:46.652Z,16.10
2019-04-16T12:54:31.840Z,17.50
2019-04-16T12:57:05.559Z,16.60
2019-04-16T13:02:22.110Z,24.00
2019-04-16T13:04:55.775Z,17.97
2019-04-16T13:07:29.633Z,19.65
2019-04-16T13:10:10.951Z,17.73
2019-04-16T13:12:57.201Z,20.50
2019-04-16T13:15:43.187Z,17.87
2019-04-16T13:18:17.189Z,15.95
2019-04-16T13:21:05.945Z,18.52
2019-04-16T13:23:37.161Z,18.00
2019-04-16T13:26:11.905Z,18.52
2019-04-16T13:28:40.831Z,17.12
2019-04-16T13:31:10.111Z,16.75
2019-04-16T13:33:40.628Z,22.58
2019-04-16T13:36:11.438Z,15.98
2019-04-16T13:41:33.601Z,19.37
2019-04-16T13:44:09.012Z,13.70
2019-04-16T13:46:38.610Z,21.17
2019-04-16T13:49:12.234Z,17.77
2019-04-16T13:51:41.527Z,18.55
2019-04-16T13:54:18.256Z,15.65
2019-04-16T13:56:55.071Z,14.13
2019-04-16T13:59:30.284Z,14.65
2019-04-16T14:01:59.066Z,18.35
2019-04-16T14:04:31.728Z,15.45
2019-04-16T14:07:00.555Z,10.90
2019-04-16T14:09:29.813Z,11.08
2019-04-16T14:11:59.562Z,23.55
2019-04-16T14:14:28.867Z,11.20
2019-04-16T14:17:08.364Z,14.58
2019-04-16T14:19:29.089Z,12.23
2019-04-16T14:21:58.290Z,11.55
2019-04-16T14:24:27.554Z,8.98
2019-04-16T14:26:56.835Z,14.85
2019-04-16T14:29:27.406Z,11.80
2019-04-16T14:31:56.651Z,18.67
2019-04-16T14:34:29.946Z,10.48
2019-04-16T14:36:59.262Z,12.15
2019-04-16T14:39:39.194Z,9.08
2019-04-16T14:42:08.469Z,12.18
2019-04-16T14:44:55.161Z,10.43
2019-04-16T14:47:24.422Z,12.33
2019-04-16T14:49:53.679Z,11.00
2019-04-16T14:52:22.880Z,14.15
2019-04-16T14:54:56.631Z,9.75
2019-04-16T14:59:59.181Z,8.98
2019-04-16T15:02:30.148Z,10.68
2019-04-16T15:05:03.828Z,8.68
2019-04-16T15:07:37.869Z,8.00
2019-04-16T15:10:37.373Z,7.95
2019-04-16T15:13:11.087Z,6.72
2019-04-16T15:18:17.966Z,11.08
2019-04-16T15:23:25.037Z,7.00
2019-04-16T15:26:12.440Z,9.43
2019-04-16T15:28:46.102Z,17.02
2019-04-16T15:31:33.066Z,8.65
2019-04-16T15:34:16.065Z,9.58
2019-04-16T15:36:49.856Z,10.00
2019-04-16T15:39:19.519Z,7.80
2019-04-16T15:41:59.625Z,12.37
2019-04-16T15:44:32.328Z,10.72
2019-04-16T15:47:06.136Z,10.65
2019-04-16T15:49:49.320Z,13.35
2019-04-16T15:52:27.345Z,10.75
2019-04-16T15:55:14.849Z,8.75
2019-04-16T15:57:51.951Z,11.22
2019-04-16T16:00:22.847Z,12.13
2019-04-16T16:03:10.113Z,13.88
2019-04-16T16:05:50.396Z,16.65
2019-04-16T16:08:48.574Z,13.98
2019-04-16T16:14:00.453Z,14.85
2019-04-16T16:16:41.074Z,15.08
2019-04-16T16:18:59.615Z,13.32
2019-04-16T16:21:28.911Z,19.73
2019-04-16T16:23:58.274Z,20.30
2019-04-16T16:26:27.536Z,13.13
2019-04-16T16:28:56.807Z,38.10
2019-04-16T16:31:26.057Z,16.77
2019-04-16T16:33:55.350Z,14.80
2019-04-16T16:36:24.634Z,16.37
2019-04-16T16:38:53.891Z,25.23
2019-04-16T16:41:23.176Z,16.25
2019-04-16T16:43:52.458Z,14.07
2019-04-16T16:46:23.369Z,16.40
2019-04-16T16:48:54.407Z,16.05
2019-04-16T16:51:37.890Z,13.22
2019-04-16T16:54:27.356Z,16.50
2019-04-16T16:57:03.019Z,18.17
2019-04-16T16:59:33.986Z,15.43
2019-04-16T17:02:10.956Z,19.45
2019-04-16T17:04:43.091Z,19.50
2019-04-16T17:07:25.068Z,14.85
2019-04-16T17:09:54.350Z,17.17
2019-04-16T17:12:43.914Z,16.40
2019-04-16T17:15:13.180Z,15.15
2019-04-16T17:17:44.445Z,32.28
2019-04-16T17:20:13.654Z,18.05
2019-04-16T17:22:42.845Z,18.45
2019-04-16T17:25:13.697Z,19.67
2019-04-16T17:27:51.323Z,19.80
2019-04-16T17:30:13.938Z,35.85
2019-04-16T17:32:44.174Z,15.50
2019-04-16T17:35:15.516Z,16.95
2019-04-16T17:37:44.354Z,13.00
2019-04-16T17:40:16.311Z,16.90
2019-04-16T17:42:47.996Z,17.77
2019-04-16T17:45:34.974Z,17.42
2019-04-16T17:48:14.687Z,18.35
2019-04-16T17:50:46.559Z,14.55
2019-04-16T17:53:33.377Z,20.05
2019-04-16T17:56:20.672Z,18.05
2019-04-16T17:58:54.929Z,22.98
2019-04-16T18:01:27.306Z,18.98
2019-04-16T18:03:58.203Z,21.05
2019-04-16T18:06:29.132Z,19.45
2019-04-16T18:09:03.069Z,10.80
2019-04-16T18:11:45.446Z,10.43
2019-04-16T18:20:22.431Z,5.85
2019-04-16T18:22:54.664Z,5.87
2019-04-16T18:25:55.158Z,4.92
2019-04-16T18:28:17.104Z,16.15
2019-04-16T18:30:50.415Z,9.43
2019-04-16T18:33:32.357Z,10.40
2019-04-16T18:36:03.247Z,5.55
2019-04-16T18:38:40.655Z,9.45
2019-04-16T18:41:18.714Z,8.83
2019-04-16T18:44:06.846Z,9.50
2019-04-16T18:46:37.921Z,5.28
2019-04-16T18:49:14.302Z,6.83
2019-04-16T18:51:46.626Z,8.13
2019-04-16T18:54:16.551Z,9.15
2019-04-16T18:56:47.460Z,10.55
2019-04-16T18:59:18.722Z,7.83
2019-04-16T19:01:49.863Z,6.75
2019-04-16T19:04:22.017Z,7.65
2019-04-16T19:07:03.446Z,7.83
2019-04-16T19:09:35.308Z,5.90
2019-04-16T19:12:04.568Z,5.90
2019-04-16T19:14:36.494Z,6.90
2019-04-16T19:17:04.986Z,7.62
2019-04-16T19:19:34.263Z,7.60
2019-04-16T19:22:03.790Z,8.83
2019-04-16T19:24:45.991Z,7.67
2019-04-16T19:27:15.279Z,6.58
2019-04-16T19:29:45.494Z,7.80
2019-04-16T19:32:15.404Z,6.40
2019-04-16T19:34:44.725Z,5.33
2019-04-16T19:37:13.992Z,5.42
2019-04-16T19:39:43.747Z,6.25
2019-04-16T19:42:15.226Z,5.90
2019-04-16T19:44:44.565Z,5.10
2019-04-16T19:47:13.826Z,6.15
2019-04-16T19:49:43.090Z,6.58
2019-04-16T19:52:17.132Z,7.00
2019-04-16T19:54:57.264Z,5.28
2019-04-16T19:57:26.650Z,5.40
2019-04-16T19:59:56.978Z,8.58
2019-04-16T20:02:26.229Z,7.05
2019-04-16T20:04:55.432Z,6.85
2019-04-16T20:07:24.792Z,9.83
2019-04-16T20:09:54.168Z,6.25
2019-04-16T20:12:25.113Z,5.78
2019-04-16T20:14:55.738Z,5.42
2019-04-16T20:17:26.017Z,8.18
2019-04-16T20:19:58.543Z,6.62
2019-04-16T20:22:30.244Z,6.10
2019-04-16T20:24:59.742Z,6.08
2019-04-16T20:27:30.226Z,5.22
2019-04-16T20:29:59.553Z,4.65
2019-04-16T20:32:30.884Z,9.13
2019-04-16T20:35:00.247Z,6.47
2019-04-16T20:37:31.971Z,6.62
2019-04-16T20:40:01.271Z,5.28
2019-04-16T20:42:33.643Z,4.25
2019-04-16T20:45:02.966Z,6.55
2019-04-16T20:47:32.253Z,5.12
2019-04-16T20:50:04.254Z,4.12
2019-04-16T20:52:34.155Z,4.05
2019-04-16T20:55:03.955Z,4.53
2019-04-16T20:57:33.274Z,3.77
2019-04-16T21:00:03.405Z,6.47
2019-04-16T21:02:32.923Z,6.75
2019-04-16T21:05:04.631Z,17.00
2019-04-16T21:07:35.278Z,7.67
2019-04-16T21:10:06.284Z,4.25
2019-04-16T21:12:36.443Z,6.28
2019-04-16T21:15:09.095Z,5.75
2019-04-16T21:17:39.332Z,7.40
2019-04-16T21:20:08.737Z,9.28
2019-04-16T21:22:39.623Z,4.62
2019-04-16T21:25:12.544Z,5.78
2019-04-16T21:27:56.604Z,4.28
2019-04-16T21:30:25.862Z,6.10
2019-04-16T21:33:03.002Z,5.40
2019-04-16T21:35:36.760Z,2.83
2019-04-16T21:38:07.670Z,4.35
2019-04-16T21:40:37.022Z,5.72
2019-04-16T21:43:08.214Z,4.12
2019-04-16T21:45:37.319Z,4.35
2019-04-16T21:48:06.594Z,3.22
2019-04-16T21:50:35.854Z,5.87
2019-04-16T21:53:05.206Z,7.83
2019-04-16T21:55:35.481Z,5.70
2019-04-16T21:58:05.757Z,4.10
2019-04-16T22:00:39.485Z,3.95
2019-04-16T22:03:14.843Z,5.10
2019-04-16T22:05:48.082Z,4.00
2019-04-16T22:08:15.034Z,3.50
2019-04-16T22:10:46.554Z,5.28
2019-04-16T22:13:19.087Z,3.05
2019-04-16T22:15:47.123Z,6.20
2019-04-16T22:18:17.766Z,3.45
2019-04-16T22:20:46.958Z,5.62
2019-04-16T22:23:19.052Z,4.20
2019-04-16T22:25:47.114Z,3.17
2019-04-16T22:28:16.485Z,2.52
2019-04-16T22:30:51.124Z,4.28
2019-04-16T22:33:16.766Z,5.47
2019-04-16T22:35:46.041Z,2.08
2019-04-16T22:38:15.227Z,2.90
2019-04-16T22:40:55.000Z,1.67
2019-04-16T22:43:42.329Z,2.67
2019-04-16T22:46:12.105Z,3.00
2019-04-16T22:48:43.010Z,2.42
2019-04-16T22:51:12.278Z,6.22
2019-04-16T22:53:41.533Z,4.75
2019-04-16T22:56:10.765Z,2.55
2019-04-16T22:58:49.995Z,4.33
2019-04-16T23:01:28.263Z,2.52
2019-04-16T23:03:57.550Z,6.72
2019-04-16T23:06:26.815Z,2.50
2019-04-16T23:08:56.088Z,2.35
2019-04-16T23:11:25.349Z,3.65
2019-04-16T23:13:54.609Z,3.25
2019-04-16T23:16:23.954Z,2.12
2019-04-16T23:18:53.202Z,3.08
2019-04-16T23:21:22.450Z,2.50
2019-04-16T23:23:52.349Z,2.25
2019-04-16T23:26:22.772Z,2.47
2019-04-16T23:28:52.140Z,1.92
2019-04-16T23:31:22.558Z,4.08
2019-04-16T23:33:52.281Z,4.30
2019-04-16T23:36:21.554Z,6.42
2019-04-16T23:38:51.294Z,2.90
2019-04-16T23:41:20.554Z,4.45
2019-04-16T23:43:53.506Z,3.62
2019-04-16T23:46:42.062Z,3.62
2019-04-16T23:49:12.998Z,6.03
2019-04-16T23:51:43.949Z,3.35
2019-04-16T23:54:14.839Z,6.55
2019-04-16T23:56:49.788Z,4.47
2019-04-16T23:59:23.953Z,4.15
